Time;durP1;ratioP1;P1;durP2;ratioP2;P2;SDS_P1;SDS_P2;PMS_P1;PMS_P2;Temp;Humidity;BMP_temperature;BMP_pressure;BME280_temperature;BME280_humidity;BME280_pressure;Samples;Min_cycle;Max_cycle;Signal;HPM_P1;HPM_P2
2022/09/04 00:00:32;;;;;;;4.80;3.60;;;;;;;;;;5062520;28;20177;-73
2022/09/04 00:03:14;;;;;;;3.60;3.30;;;;;;;;;;5057178;28;20297;-73
2022/09/04 00:05:51;;;;;;;3.73;3.43;;;;;;;;;;5052444;28;20181;-73
2022/09/04 00:08:36;;;;;;;4.00;3.70;;;;;;;;;;5060519;28;20328;-73
2022/09/04 00:11:18;;;;;;;3.60;3.30;;;;;;;;;;5054528;28;20760;-73
2022/09/04 00:13:44;;;;;;;4.03;3.70;;;;;;;;;;5060567;28;20213;-73
2022/09/04 00:16:10;;;;;;;5.80;3.80;;;;;;;;;;5058554;28;20218;-73
2022/09/04 00:18:52;;;;;;;5.30;4.10;;;;;;;;;;5062320;28;20207;-73
2022/09/04 00:21:20;;;;;;;4.33;3.93;;;;;;;;;;5058876;28;20189;-73
2022/09/04 00:23:51;;;;;;;4.30;4.00;;;;;;;;;;5064912;28;20213;-73
2022/09/04 00:26:17;;;;;;;6.03;3.70;;;;;;;;;;5058518;28;20188;-73
2022/09/04 00:28:46;;;;;;;4.40;4.00;;;;;;;;;;5064702;28;20212;-73
2022/09/04 00:31:24;;;;;;;5.63;3.87;;;;;;;;;;5069584;28;20241;-73
2022/09/04 00:33:59;;;;;;;4.60;4.20;;;;;;;;;;5037439;28;21652;-73
2022/09/04 00:36:27;;;;;;;4.50;4.10;;;;;;;;;;5054681;28;20204;-73
2022/09/04 00:38:56;;;;;;;6.00;4.43;;;;;;;;;;5060934;28;20182;-73
2022/09/04 00:41:29;;;;;;;4.20;3.90;;;;;;;;;;5054488;28;20174;-73
2022/09/04 00:44:01;;;;;;;4.50;4.10;;;;;;;;;;5062657;28;20221;-73
2022/09/04 00:46:46;;;;;;;4.90;4.40;;;;;;;;;;5054004;28;20185;-74
2022/09/04 00:49:13;;;;;;;4.70;4.30;;;;;;;;;;5064976;28;20216;-73
2022/09/04 00:51:51;;;;;;;5.17;4.67;;;;;;;;;;5064745;28;20190;-73
2022/09/04 00:54:18;;;;;;;4.47;4.07;;;;;;;;;;5060011;28;20702;-73
2022/09/04 00:57:14;;;;;;;4.97;4.47;;;;;;;;;;5055085;28;20177;-73
2022/09/04 00:59:46;;;;;;;4.20;3.80;;;;;;;;;;5020529;28;20321;-73
2022/09/04 01:02:21;;;;;;;4.90;4.50;;;;;;;;;;5058601;28;20194;-73
2022/09/04 01:04:56;;;;;;;4.70;4.30;;;;;;;;;;5059617;28;20311;-73
2022/09/04 01:07:58;;;;;;;5.20;4.70;;;;;;;;;;5061113;28;20180;-73
2022/09/04 01:10:33;;;;;;;5.13;4.13;;;;;;;;;;4994498;28;20198;-73
2022/09/04 01:13:25;;;;;;;4.50;4.10;;;;;;;;;;5064194;28;20192;-73
2022/09/04 01:16:00;;;;;;;3.93;3.47;;;;;;;;;;5054199;28;20185;-73
2022/09/04 01:18:37;;;;;;;4.73;4.30;;;;;;;;;;5057075;28;20239;-73
2022/09/04 01:21:26;;;;;;;4.63;4.20;;;;;;;;;;5062901;28;20253;-73
2022/09/04 01:24:25;;;;;;;4.10;3.70;;;;;;;;;;5061290;28;20242;-73
2022/09/04 01:27:00;;;;;;;4.60;4.20;;;;;;;;;;5028666;28;20193;-73
2022/09/04 01:29:35;;;;;;;4.43;3.83;;;;;;;;;;5064565;28;20232;-73
2022/09/04 01:32:01;;;;;;;4.20;3.80;;;;;;;;;;5065111;28;20173;-73
2022/09/04 01:34:30;;;;;;;4.30;3.90;;;;;;;;;;5058821;28;20197;-74
2022/09/04 01:37:14;;;;;;;4.00;3.60;;;;;;;;;;5059870;28;20202;-73
2022/09/04 01:39:42;;;;;;;4.33;3.93;;;;;;;;;;5058778;28;20264;-73
2022/09/04 01:42:13;;;;;;;4.23;3.80;;;;;;;;;;5064197;28;20189;-73
2022/09/04 01:44:40;;;;;;;4.30;3.87;;;;;;;;;;5064005;28;20207;-73
2022/09/04 01:47:25;;;;;;;4.20;3.83;;;;;;;;;;5065202;28;20184;-73
2022/09/04 01:49:56;;;;;;;3.93;3.40;;;;;;;;;;5063188;28;20730;-73
2022/09/04 01:52:22;;;;;;;5.90;4.23;;;;;;;;;;5055775;28;20272;-73
2022/09/04 01:54:52;;;;;;;5.30;3.80;;;;;;;;;;5072247;28;20200;-73
2022/09/04 01:57:34;;;;;;;4.17;3.77;;;;;;;;;;5056596;28;20181;-74
2022/09/04 02:00:00;;;;;;;4.40;4.00;;;;;;;;;;5063898;28;20180;-73
2022/09/04 02:02:45;;;;;;;4.00;3.67;;;;;;;;;;5064916;28;20700;-73
2022/09/04 02:05:37;;;;;;;4.00;3.60;;;;;;;;;;5060693;28;20212;-73
2022/09/04 02:08:10;;;;;;;4.93;4.43;;;;;;;;;;5059838;28;20837;-73
2022/09/04 02:10:39;;;;;;;4.77;4.00;;;;;;;;;;5053342;28;20184;-73
2022/09/04 02:13:25;;;;;;;4.83;4.37;;;;;;;;;;5067067;28;20196;-73
2022/09/04 02:16:07;;;;;;;4.30;3.90;;;;;;;;;;5062521;28;20230;-73
2022/09/04 02:18:36;;;;;;;5.03;4.10;;;;;;;;;;5056821;28;20277;-73
2022/09/04 02:21:10;;;;;;;3.93;3.53;;;;;;;;;;5061216;28;20194;-73
2022/09/04 02:23:41;;;;;;;4.50;4.10;;;;;;;;;;5061658;28;20709;-73
2022/09/04 02:26:14;;;;;;;5.20;4.30;;;;;;;;;;5061988;28;20195;-73
2022/09/04 02:28:52;;;;;;;4.47;3.90;;;;;;;;;;5073474;28;20232;-73
2022/09/04 02:31:28;;;;;;;5.20;3.80;;;;;;;;;;5043341;28;20189;-73
2022/09/04 02:33:57;;;;;;;4.20;3.80;;;;;;;;;;5066780;28;20257;-73
2022/09/04 02:36:26;;;;;;;4.20;3.87;;;;;;;;;;5063576;28;20182;-73
2022/09/04 02:39:08;;;;;;;4.10;3.70;;;;;;;;;;5070704;28;20212;-73
2022/09/04 02:41:49;;;;;;;4.83;3.60;;;;;;;;;;5056276;28;20652;-73
2022/09/04 02:44:29;;;;;;;4.07;3.67;;;;;;;;;;5068531;28;20239;-74
2022/09/04 02:47:01;;;;;;;3.90;3.10;;;;;;;;;;5059548;28;20192;-73
2022/09/04 02:49:28;;;;;;;4.23;3.70;;;;;;;;;;5062189;28;20302;-73
2022/09/04 02:52:13;;;;;;;3.80;3.50;;;;;;;;;;5057208;28;20683;-73
2022/09/04 02:54:58;;;;;;;4.03;3.63;;;;;;;;;;5061062;28;20201;-73
2022/09/04 02:57:32;;;;;;;4.50;4.10;;;;;;;;;;5061292;28;20181;-73
2022/09/04 03:00:14;;;;;;;5.17;4.67;;;;;;;;;;5073286;28;20694;-73
2022/09/04 03:03:03;;;;;;;4.93;4.20;;;;;;;;;;5049735;28;20601;-73
2022/09/04 03:05:32;;;;;;;5.00;4.27;;;;;;;;;;5032526;28;20221;-73
2022/09/04 03:07:58;;;;;;;4.83;4.43;;;;;;;;;;5065959;28;20683;-73
2022/09/04 03:10:30;;;;;;;4.77;4.37;;;;;;;;;;5057414;28;20210;-73
2022/09/04 03:13:04;;;;;;;4.70;4.30;;;;;;;;;;5063941;28;20181;-73
2022/09/04 03:15:40;;;;;;;4.53;4.10;;;;;;;;;;5060374;28;20239;-73
2022/09/04 03:18:25;;;;;;;4.57;4.17;;;;;;;;;;5069726;28;20233;-73
2022/09/04 03:21:06;;;;;;;4.67;4.17;;;;;;;;;;5066015;28;20205;-73
2022/09/04 03:23:38;;;;;;;4.90;4.50;;;;;;;;;;5059980;28;20564;-73
2022/09/04 03:26:31;;;;;;;4.93;4.33;;;;;;;;;;5070698;28;20217;-73
2022/09/04 03:29:08;;;;;;;4.80;4.40;;;;;;;;;;5045074;28;20799;-73
2022/09/04 03:31:53;;;;;;;4.77;4.37;;;;;;;;;;5075460;28;20192;-73
2022/09/04 03:34:22;;;;;;;5.10;4.60;;;;;;;;;;5070941;28;20197;-73
2022/09/04 03:37:07;;;;;;;6.70;4.60;;;;;;;;;;5068478;28;20189;-73
2022/09/04 03:39:42;;;;;;;5.20;4.70;;;;;;;;;;5071615;28;20640;-73
2022/09/04 03:42:27;;;;;;;5.83;4.83;;;;;;;;;;5068114;28;20903;-73
2022/09/04 03:44:53;;;;;;;5.33;4.90;;;;;;;;;;5075265;28;20607;-73
2022/09/04 03:47:22;;;;;;;4.87;4.47;;;;;;;;;;5073204;28;20194;-73
2022/09/04 03:50:09;;;;;;;4.80;4.40;;;;;;;;;;5060566;28;20213;-74
2022/09/04 03:52:50;;;;;;;3.97;3.67;;;;;;;;;;5059997;28;20186;-73
2022/09/04 03:55:23;;;;;;;3.80;3.50;;;;;;;;;;5068627;28;20242;-73
2022/09/04 03:57:57;;;;;;;4.53;4.13;;;;;;;;;;5069199;28;20180;-74
2022/09/04 04:00:23;;;;;;;4.67;4.00;;;;;;;;;;5068129;28;20196;-73
2022/09/04 04:03:07;;;;;;;4.37;3.97;;;;;;;;;;5065831;28;20192;-73
2022/09/04 04:05:38;;;;;;;4.27;3.83;;;;;;;;;;5065652;28;20274;-73
2022/09/04 04:08:13;;;;;;;4.53;4.13;;;;;;;;;;5047665;28;20176;-73
2022/09/04 04:10:49;;;;;;;4.23;3.83;;;;;;;;;;5043925;28;20181;-73
2022/09/04 04:13:15;;;;;;;5.10;4.27;;;;;;;;;;5056340;28;20174;-73
2022/09/04 04:15:51;;;;;;;4.53;4.03;;;;;;;;;;5067382;28;20177;-73
2022/09/04 04:18:26;;;;;;;4.90;4.50;;;;;;;;;;5059208;28;20455;-73
2022/09/04 04:21:09;;;;;;;4.53;4.13;;;;;;;;;;5061536;28;20264;-73
2022/09/04 04:23:42;;;;;;;4.93;4.43;;;;;;;;;;5046189;28;20236;-73
2022/09/04 04:26:08;;;;;;;4.73;4.27;;;;;;;;;;5068033;28;20252;-73
2022/09/04 04:28:58;;;;;;;4.93;4.43;;;;;;;;;;5068982;28;20320;-73
2022/09/04 04:31:43;;;;;;;4.70;4.30;;;;;;;;;;5052338;28;20190;-73
2022/09/04 04:34:31;;;;;;;3.77;3.47;;;;;;;;;;5065763;28;20205;-73
2022/09/04 04:37:02;;;;;;;4.80;4.40;;;;;;;;;;5067367;28;20176;-73
2022/09/04 04:39:38;;;;;;;5.27;4.17;;;;;;;;;;5062313;28;20193;-73
2022/09/04 04:42:10;;;;;;;5.00;4.50;;;;;;;;;;5060238;28;20767;-73
2022/09/04 04:47:44;;;;;;;4.90;4.40;;;;;;;;;;5059465;28;20895;-73
2022/09/04 04:50:28;;;;;;;4.47;4.07;;;;;;;;;;5065190;28;20218;-73
2022/09/04 04:53:13;;;;;;;5.67;4.60;;;;;;;;;;5065568;28;20758;-73
2022/09/04 04:55:58;;;;;;;5.27;4.77;;;;;;;;;;5078064;28;20314;-73
2022/09/04 04:58:31;;;;;;;5.30;4.50;;;;;;;;;;5066271;28;20260;-73
2022/09/04 05:01:04;;;;;;;5.53;4.40;;;;;;;;;;5057649;28;20184;-73
2022/09/04 05:03:31;;;;;;;4.97;4.57;;;;;;;;;;5063016;28;20807;-73
2022/09/04 05:06:05;;;;;;;4.63;4.23;;;;;;;;;;5068114;28;20212;-73
2022/09/04 05:08:46;;;;;;;6.07;5.10;;;;;;;;;;5069942;28;20193;-73
2022/09/04 05:11:18;;;;;;;5.67;4.60;;;;;;;;;;5063109;28;20213;-73
2022/09/04 05:13:50;;;;;;;5.00;4.50;;;;;;;;;;5067884;28;20192;-73
2022/09/04 05:16:16;;;;;;;6.33;4.67;;;;;;;;;;5062651;28;20214;-73
2022/09/04 05:19:00;;;;;;;5.40;4.67;;;;;;;;;;5061481;28;20211;-73
2022/09/04 05:21:42;;;;;;;5.93;5.00;;;;;;;;;;5063743;28;20265;-73
2022/09/04 05:24:31;;;;;;;4.83;4.43;;;;;;;;;;5072754;28;20201;-73
2022/09/04 05:27:06;;;;;;;5.33;4.83;;;;;;;;;;5053892;28;20205;-73
2022/09/04 05:29:40;;;;;;;6.17;5.00;;;;;;;;;;5046550;28;20223;-73
2022/09/04 05:32:12;;;;;;;5.70;5.20;;;;;;;;;;5067245;28;20176;-73
2022/09/04 05:34:50;;;;;;;6.07;5.47;;;;;;;;;;5066630;28;20197;-73
2022/09/04 05:37:20;;;;;;;5.57;5.07;;;;;;;;;;5053566;28;20192;-73
2022/09/04 05:40:05;;;;;;;6.97;5.37;;;;;;;;;;5068755;28;20680;-73
2022/09/04 05:42:50;;;;;;;6.33;5.10;;;;;;;;;;5071256;28;20178;-73
2022/09/04 05:45:35;;;;;;;5.63;5.13;;;;;;;;;;5058087;28;20209;-73
2022/09/04 05:48:10;;;;;;;6.03;5.10;;;;;;;;;;5061666;28;20183;-73
2022/09/04 05:50:54;;;;;;;5.90;5.40;;;;;;;;;;5060382;28;20241;-73
2022/09/04 05:53:29;;;;;;;5.67;5.17;;;;;;;;;;5059510;28;20181;-73
2022/09/04 05:56:08;;;;;;;8.40;5.90;;;;;;;;;;5048633;28;20180;-73
2022/09/04 05:58:43;;;;;;;6.30;5.70;;;;;;;;;;5060375;28;20720;-74
2022/09/04 06:01:15;;;;;;;6.50;5.93;;;;;;;;;;5057730;28;20761;-73
2022/09/04 06:03:49;;;;;;;6.33;5.70;;;;;;;;;;5061243;28;20680;-73
2022/09/04 06:06:18;;;;;;;6.33;5.83;;;;;;;;;;5044030;28;20189;-75
2022/09/04 06:08:44;;;;;;;6.13;5.53;;;;;;;;;;5059158;28;20266;-73
2022/09/04 06:11:23;;;;;;;6.30;5.70;;;;;;;;;;5055845;28;20188;-73
2022/09/04 06:13:52;;;;;;;6.40;5.50;;;;;;;;;;5070687;28;20236;-73
2022/09/04 06:16:27;;;;;;;5.50;5.10;;;;;;;;;;5063597;28;20173;-73
2022/09/04 06:18:53;;;;;;;5.60;5.10;;;;;;;;;;5057379;28;20212;-73
2022/09/04 06:21:33;;;;;;;5.50;4.87;;;;;;;;;;5059376;28;20780;-73
2022/09/04 06:23:59;;;;;;;5.60;5.10;;;;;;;;;;5060796;28;20212;-73
2022/09/04 06:26:44;;;;;;;6.00;5.40;;;;;;;;;;5068792;28;20682;-73
2022/09/04 06:29:29;;;;;;;6.83;5.80;;;;;;;;;;5058174;28;20224;-73
2022/09/04 06:31:58;;;;;;;8.43;6.13;;;;;;;;;;5056817;28;20725;-73
2022/09/04 06:34:33;;;;;;;6.43;5.80;;;;;;;;;;5064475;28;20202;-73
2022/09/04 06:37:00;;;;;;;6.17;5.67;;;;;;;;;;5063019;28;20273;-73
2022/09/04 06:39:35;;;;;;;7.27;6.57;;;;;;;;;;5049497;28;20271;-73
2022/09/04 06:42:10;;;;;;;7.07;6.37;;;;;;;;;;5053955;28;20179;-73
2022/09/04 06:44:47;;;;;;;7.23;6.37;;;;;;;;;;5049809;28;20209;-73
2022/09/04 06:47:22;;;;;;;6.57;5.97;;;;;;;;;;5057886;28;20190;-73
2022/09/04 06:49:57;;;;;;;6.20;5.60;;;;;;;;;;5063041;28;20199;-74
2022/09/04 06:52:37;;;;;;;5.80;5.30;;;;;;;;;;5064690;28;20732;-74
2022/09/04 06:55:12;;;;;;;6.73;5.30;;;;;;;;;;5060306;28;20201;-74
2022/09/04 06:57:51;;;;;;;6.60;6.00;;;;;;;;;;5072006;28;20854;-74
2022/09/04 07:00:18;;;;;;;6.90;6.30;;;;;;;;;;5068852;28;20181;-74
2022/09/04 07:02:53;;;;;;;7.00;6.40;;;;;;;;;;5073747;28;20180;-74
2022/09/04 07:05:22;;;;;;;7.17;6.47;;;;;;;;;;5069451;28;20201;-74
2022/09/04 07:07:48;;;;;;;6.73;6.03;;;;;;;;;;5067885;28;20597;-74
2022/09/04 07:10:17;;;;;;;6.73;6.13;;;;;;;;;;5065092;28;20217;-74
2022/09/04 07:12:57;;;;;;;6.67;5.97;;;;;;;;;;5062908;28;20184;-74
2022/09/04 07:15:23;;;;;;;6.43;5.83;;;;;;;;;;5064868;28;20331;-74
2022/09/04 07:18:00;;;;;;;6.50;5.90;;;;;;;;;;5065991;28;20173;-74
2022/09/04 07:20:56;;;;;;;7.40;6.53;;;;;;;;;;5068011;28;20207;-74
2022/09/04 07:23:43;;;;;;;8.07;7.27;;;;;;;;;;5011674;28;20207;-73
2022/09/04 07:26:10;;;;;;;7.63;6.97;;;;;;;;;;5064452;28;20189;-73
2022/09/04 07:28:36;;;;;;;7.67;6.93;;;;;;;;;;5065062;28;20209;-73
2022/09/04 07:31:06;;;;;;;7.83;7.13;;;;;;;;;;5065487;28;20181;-72
2022/09/04 07:33:38;;;;;;;7.30;6.60;;;;;;;;;;5061284;28;20641;-72
2022/09/04 07:36:06;;;;;;;6.97;6.33;;;;;;;;;;5060599;28;20198;-73
2022/09/04 07:38:51;;;;;;;7.03;6.37;;;;;;;;;;5069411;28;20177;-73
2022/09/04 07:41:31;;;;;;;6.33;5.73;;;;;;;;;;5060600;28;21137;-73
2022/09/04 07:44:02;;;;;;;7.50;6.73;;;;;;;;;;5066170;28;20237;-72
2022/09/04 07:46:45;;;;;;;8.23;7.43;;;;;;;;;;5068366;28;20239;-72
2022/09/04 07:49:22;;;;;;;9.07;8.17;;;;;;;;;;5068258;28;20243;-72
2022/09/04 07:51:56;;;;;;;9.57;8.57;;;;;;;;;;5063903;28;20200;-72
2022/09/04 07:54:41;;;;;;;10.27;9.10;;;;;;;;;;5066979;28;20271;-72
2022/09/04 07:57:37;;;;;;;9.80;7.33;;;;;;;;;;5059550;28;20189;-78
2022/09/04 08:00:07;;;;;;;8.63;7.83;;;;;;;;;;5032257;28;20189;-72
2022/09/04 08:02:55;;;;;;;9.43;8.53;;;;;;;;;;5064479;28;20223;-75
2022/09/04 08:05:30;;;;;;;9.53;8.63;;;;;;;;;;5066383;28;20249;-74
2022/09/04 08:08:22;;;;;;;9.17;8.27;;;;;;;;;;5066021;28;20266;-75
2022/09/04 08:11:04;;;;;;;9.23;8.33;;;;;;;;;;5065907;28;20174;-73
2022/09/04 08:13:53;;;;;;;9.53;8.63;;;;;;;;;;5060828;28;20185;-73
2022/09/04 08:16:27;;;;;;;9.47;8.47;;;;;;;;;;5035981;28;20194;-74
2022/09/04 08:19:02;;;;;;;10.20;9.20;;;;;;;;;;5053303;28;20184;-74
2022/09/04 08:21:48;;;;;;;8.90;7.77;;;;;;;;;;5054788;28;20188;-73
2022/09/04 08:24:15;;;;;;;10.00;8.93;;;;;;;;;;5041662;28;20218;-74
2022/09/04 08:26:55;;;;;;;9.70;8.53;;;;;;;;;;5053512;28;20641;-73
2022/09/04 08:29:31;;;;;;;10.57;8.83;;;;;;;;;;5063863;28;20224;-73
2022/09/04 08:32:04;;;;;;;9.30;8.40;;;;;;;;;;5049899;28;20196;-73
2022/09/04 08:34:39;;;;;;;9.50;8.57;;;;;;;;;;5045877;28;20321;-73
2022/09/04 08:37:24;;;;;;;8.10;7.30;;;;;;;;;;5055928;28;20189;-73
2022/09/04 08:40:04;;;;;;;8.03;7.30;;;;;;;;;;5060550;28;21051;-73
2022/09/04 08:42:55;;;;;;;7.87;6.97;;;;;;;;;;5060909;28;20912;-72
2022/09/04 08:45:42;;;;;;;7.53;6.83;;;;;;;;;;5042332;28;20216;-73
2022/09/04 08:48:31;;;;;;;6.97;6.30;;;;;;;;;;5064944;28;20267;-72
2022/09/04 08:51:15;;;;;;;7.57;6.77;;;;;;;;;;5060595;28;20185;-73
2022/09/04 08:53:41;;;;;;;7.13;6.30;;;;;;;;;;5057934;28;20278;-72
2022/09/04 08:56:17;;;;;;;7.67;6.47;;;;;;;;;;5054916;28;20469;-72
2022/09/04 08:58:55;;;;;;;6.30;5.70;;;;;;;;;;5063214;28;20228;-72
2022/09/04 09:01:42;;;;;;;7.13;6.43;;;;;;;;;;5060162;28;20177;-72
2022/09/04 09:04:40;;;;;;;7.13;5.97;;;;;;;;;;5048902;28;20315;-71
2022/09/04 09:07:25;;;;;;;6.70;5.33;;;;;;;;;;5057496;28;20197;-70
2022/09/04 09:10:08;;;;;;;6.73;5.40;;;;;;;;;;5061453;28;20272;-71
2022/09/04 09:13:05;;;;;;;7.00;5.53;;;;;;;;;;5065362;28;20173;-71
2022/09/04 09:15:50;;;;;;;8.60;5.60;;;;;;;;;;5055093;28;20208;-71
2022/09/04 09:18:38;;;;;;;6.80;5.10;;;;;;;;;;5061230;28;20200;-71
2022/09/04 09:21:06;;;;;;;7.83;6.00;;;;;;;;;;5051927;28;20201;-71
2022/09/04 09:23:44;;;;;;;6.57;5.30;;;;;;;;;;5059678;28;20173;-71
2022/09/04 09:26:16;;;;;;;4.57;4.10;;;;;;;;;;5054912;28;20272;-71
2022/09/04 09:29:02;;;;;;;5.17;4.57;;;;;;;;;;5045743;28;20201;-71
2022/09/04 09:31:38;;;;;;;5.73;4.13;;;;;;;;;;5062094;28;20178;-71
2022/09/04 09:34:05;;;;;;;6.07;4.90;;;;;;;;;;5058500;28;20582;-72
2022/09/04 09:36:49;;;;;;;6.23;4.90;;;;;;;;;;5064286;28;20177;-71
2022/09/04 09:39:35;;;;;;;5.77;5.17;;;;;;;;;;5040712;28;20178;-71
2022/09/04 09:42:16;;;;;;;4.80;4.30;;;;;;;;;;5059750;28;20193;-71
2022/09/04 09:44:55;;;;;;;5.63;5.10;;;;;;;;;;5060902;28;20201;-72
2022/09/04 09:47:31;;;;;;;6.67;4.80;;;;;;;;;;5065559;28;20838;-71
2022/09/04 09:50:04;;;;;;;8.00;5.03;;;;;;;;;;5038787;28;20217;-71
2022/09/04 09:52:42;;;;;;;5.20;4.47;;;;;;;;;;5032276;28;20193;-73
2022/09/04 09:55:08;;;;;;;4.47;4.07;;;;;;;;;;5057673;28;20192;-73
2022/09/04 09:57:44;;;;;;;4.50;4.10;;;;;;;;;;5059008;28;20177;-72
2022/09/04 10:00:11;;;;;;;5.10;4.60;;;;;;;;;;5058697;28;20667;-72
2022/09/04 10:02:56;;;;;;;4.20;3.80;;;;;;;;;;5041050;28;20258;-73
2022/09/04 10:05:41;;;;;;;5.93;4.07;;;;;;;;;;5042838;28;20311;-71
2022/09/04 10:08:09;;;;;;;5.60;4.30;;;;;;;;;;5058147;28;20181;-71
2022/09/04 10:10:54;;;;;;;4.20;3.80;;;;;;;;;;5053273;28;20219;-71
2022/09/04 10:13:39;;;;;;;5.33;4.47;;;;;;;;;;5059721;28;20243;-71
2022/09/04 10:16:14;;;;;;;3.93;3.50;;;;;;;;;;5058642;28;20199;-73
2022/09/04 10:18:59;;;;;;;5.27;3.73;;;;;;;;;;5041259;28;20628;-71
2022/09/04 10:21:28;;;;;;;3.60;3.10;;;;;;;;;;5049754;28;20280;-71
2022/09/04 10:24:04;;;;;;;4.17;3.20;;;;;;;;;;5060243;28;20201;-71
2022/09/04 10:26:49;;;;;;;3.47;3.03;;;;;;;;;;5055092;28;20198;-72
2022/09/04 10:29:35;;;;;;;4.07;3.47;;;;;;;;;;5065277;28;20339;-73
2022/09/04 10:32:20;;;;;;;4.80;4.23;;;;;;;;;;5064926;28;20177;-71
2022/09/04 10:34:53;;;;;;;4.20;3.80;;;;;;;;;;5043509;28;20229;-72
2022/09/04 10:37:28;;;;;;;3.50;3.20;;;;;;;;;;5062220;28;20222;-71
2022/09/04 10:43:22;;;;;;;4.40;3.37;;;;;;;;;;5066118;28;20213;-72
2022/09/04 10:46:10;;;;;;;4.53;3.00;;;;;;;;;;5065787;28;20189;-71
2022/09/04 10:48:36;;;;;;;3.67;3.30;;;;;;;;;;5062834;28;20211;-72
2022/09/04 10:51:35;;;;;;;3.37;2.93;;;;;;;;;;5066092;28;20562;-74
2022/09/04 10:54:19;;;;;;;2.83;2.60;;;;;;;;;;5040920;28;20708;-73
2022/09/04 10:56:48;;;;;;;2.77;2.57;;;;;;;;;;5058654;28;20246;-74
2022/09/04 10:59:38;;;;;;;4.63;2.80;;;;;;;;;;5042990;28;20187;-73
2022/09/04 11:02:24;;;;;;;3.40;2.67;;;;;;;;;;5054612;28;20190;-73
2022/09/04 11:05:08;;;;;;;3.17;2.87;;;;;;;;;;5056284;28;20739;-72
2022/09/04 11:07:42;;;;;;;3.03;2.73;;;;;;;;;;5062180;28;20182;-72
2022/09/04 11:10:35;;;;;;;4.10;2.73;;;;;;;;;;5047488;28;20300;-73
2022/09/04 11:13:04;;;;;;;3.30;3.00;;;;;;;;;;5049219;28;20200;-72
2022/09/04 11:15:52;;;;;;;3.20;3.00;;;;;;;;;;5059930;28;20197;-73
2022/09/04 11:18:36;;;;;;;5.27;3.00;;;;;;;;;;5063867;28;20207;-73
2022/09/04 11:21:06;;;;;;;3.13;2.70;;;;;;;;;;5057478;28;20196;-72
2022/09/04 11:23:35;;;;;;;3.10;2.80;;;;;;;;;;5069117;28;20306;-75
2022/09/04 11:26:21;;;;;;;3.27;2.97;;;;;;;;;;5062630;28;20185;-73
2022/09/04 11:28:54;;;;;;;3.37;3.17;;;;;;;;;;5050646;28;20228;-73
2022/09/04 11:31:47;;;;;;;3.70;2.93;;;;;;;;;;5041501;28;20181;-73
2022/09/04 11:34:32;;;;;;;2.93;2.73;;;;;;;;;;5060064;28;20220;-73
2022/09/04 11:37:14;;;;;;;3.43;2.90;;;;;;;;;;5059075;28;20191;-73
2022/09/04 11:40:02;;;;;;;3.20;2.90;;;;;;;;;;5056300;28;20722;-76
2022/09/04 11:42:34;;;;;;;3.27;2.90;;;;;;;;;;5047889;28;20276;-74
2022/09/04 11:45:09;;;;;;;3.00;2.70;;;;;;;;;;5057613;28;20232;-74
2022/09/04 11:47:38;;;;;;;3.30;3.00;;;;;;;;;;5057889;28;20176;-74
2022/09/04 11:50:07;;;;;;;3.00;2.80;;;;;;;;;;5054784;28;20280;-74
2022/09/04 11:52:33;;;;;;;3.77;3.00;;;;;;;;;;5060539;28;20167;-74
2022/09/04 11:55:18;;;;;;;3.20;3.00;;;;;;;;;;5053342;28;20212;-74
2022/09/04 11:58:03;;;;;;;3.70;3.40;;;;;;;;;;5059482;28;20179;-74
2022/09/04 12:00:47;;;;;;;3.40;3.20;;;;;;;;;;5065359;28;20659;-74
2022/09/04 12:03:14;;;;;;;3.20;2.90;;;;;;;;;;5063182;28;20197;-74
2022/09/04 12:05:53;;;;;;;3.33;2.97;;;;;;;;;;5067189;28;20208;-74
2022/09/04 12:08:37;;;;;;;3.20;2.90;;;;;;;;;;5064288;28;20249;-74
2022/09/04 12:11:22;;;;;;;4.37;2.77;;;;;;;;;;5058181;28;21091;-73
2022/09/04 12:13:56;;;;;;;2.77;2.57;;;;;;;;;;5057388;28;20209;-74
2022/09/04 12:16:22;;;;;;;3.33;2.87;;;;;;;;;;5055195;28;20245;-75
2022/09/04 12:18:50;;;;;;;2.90;2.70;;;;;;;;;;5048982;28;20197;-74
2022/09/04 12:21:17;;;;;;;3.03;2.50;;;;;;;;;;5059534;28;20568;-74
2022/09/04 12:23:43;;;;;;;2.40;2.20;;;;;;;;;;5065109;28;20209;-75
2022/09/04 12:26:28;;;;;;;2.70;2.30;;;;;;;;;;5061535;28;20185;-74
2022/09/04 12:29:04;;;;;;;4.60;2.40;;;;;;;;;;5050896;28;20263;-75
2022/09/04 12:31:50;;;;;;;2.67;2.47;;;;;;;;;;5025379;28;20185;-74
2022/09/04 12:34:35;;;;;;;2.50;2.30;;;;;;;;;;5052045;28;20197;-76
2022/09/04 12:37:10;;;;;;;3.70;2.33;;;;;;;;;;5050376;28;20189;-73
2022/09/04 12:39:39;;;;;;;2.30;2.10;;;;;;;;;;5060349;28;20911;-74
2022/09/04 12:42:23;;;;;;;2.37;2.17;;;;;;;;;;5059011;28;20177;-73
2022/09/04 12:44:58;;;;;;;2.00;1.90;;;;;;;;;;5053117;28;20228;-74
2022/09/04 12:47:36;;;;;;;2.30;2.10;;;;;;;;;;5043997;28;20192;-74
2022/09/04 12:50:08;;;;;;;2.10;1.70;;;;;;;;;;5058598;28;20205;-73
2022/09/04 12:52:44;;;;;;;1.83;1.70;;;;;;;;;;5059343;28;20176;-74
2022/09/04 12:55:10;;;;;;;1.80;1.70;;;;;;;;;;5065970;28;20200;-73
2022/09/04 12:57:44;;;;;;;1.97;1.80;;;;;;;;;;5063727;28;20843;-74
2022/09/04 13:00:11;;;;;;;1.63;1.50;;;;;;;;;;5058640;28;20193;-74
2022/09/04 13:02:45;;;;;;;1.93;1.63;;;;;;;;;;5058676;28;20568;-74
2022/09/04 13:05:12;;;;;;;1.70;1.60;;;;;;;;;;5061015;28;20315;-74
2022/09/04 13:07:57;;;;;;;1.87;1.67;;;;;;;;;;5060663;28;20187;-74
2022/09/04 13:10:36;;;;;;;1.70;1.60;;;;;;;;;;5066099;28;20204;-74
2022/09/04 13:13:07;;;;;;;1.97;1.77;;;;;;;;;;5049549;28;20530;-74
2022/09/04 13:15:36;;;;;;;1.77;1.67;;;;;;;;;;5057839;28;20292;-74
2022/09/04 13:18:06;;;;;;;3.20;1.80;;;;;;;;;;5049746;28;20614;-73
2022/09/04 13:20:39;;;;;;;1.77;1.67;;;;;;;;;;5057100;28;20178;-74
2022/09/04 13:23:05;;;;;;;3.83;1.67;;;;;;;;;;5042188;28;20683;-74
2022/09/04 13:25:36;;;;;;;1.40;1.30;;;;;;;;;;5063675;28;20208;-74
2022/09/04 13:28:11;;;;;;;1.70;1.60;;;;;;;;;;5061731;28;20181;-74
2022/09/04 13:30:43;;;;;;;1.70;1.60;;;;;;;;;;5060568;28;20196;-73
2022/09/04 13:33:16;;;;;;;1.63;1.53;;;;;;;;;;5048021;28;20176;-74
2022/09/04 13:36:04;;;;;;;1.50;1.40;;;;;;;;;;5061270;28;20262;-74
2022/09/04 13:38:42;;;;;;;1.70;1.60;;;;;;;;;;5062237;28;20184;-73
2022/09/04 13:41:17;;;;;;;1.77;1.50;;;;;;;;;;5054319;28;20260;-74
2022/09/04 13:43:43;;;;;;;1.50;1.40;;;;;;;;;;5054682;28;20201;-74
2022/09/04 13:46:28;;;;;;;1.80;1.70;;;;;;;;;;5063168;28;20195;-73
2022/09/04 13:49:07;;;;;;;1.80;1.70;;;;;;;;;;5064384;28;20684;-74
2022/09/04 13:51:37;;;;;;;1.67;1.53;;;;;;;;;;5054568;28;20189;-73
2022/09/04 13:54:10;;;;;;;1.60;1.50;;;;;;;;;;5048970;28;20193;-74
2022/09/04 13:56:43;;;;;;;1.70;1.60;;;;;;;;;;5061685;28;20792;-73
2022/09/04 13:59:15;;;;;;;1.70;1.60;;;;;;;;;;5061087;28;20319;-73
2022/09/04 14:01:44;;;;;;;2.00;1.80;;;;;;;;;;5065518;28;20226;-73
2022/09/04 14:04:26;;;;;;;2.20;2.00;;;;;;;;;;5068734;28;20221;-73
2022/09/04 14:07:04;;;;;;;2.73;1.63;;;;;;;;;;5044112;28;20208;-74
2022/09/04 14:09:32;;;;;;;1.73;1.60;;;;;;;;;;5064767;28;20190;-74
2022/09/04 14:12:17;;;;;;;2.50;1.60;;;;;;;;;;5060805;28;20187;-74
2022/09/04 14:15:04;;;;;;;1.60;1.50;;;;;;;;;;5057630;28;21396;-74
2022/09/04 14:17:56;;;;;;;2.07;1.60;;;;;;;;;;5063469;28;20178;-74
2022/09/04 14:20:26;;;;;;;2.47;1.43;;;;;;;;;;5024679;28;20682;-74
2022/09/04 14:22:57;;;;;;;1.93;1.60;;;;;;;;;;5057915;28;20195;-74
2022/09/04 14:25:31;;;;;;;1.67;1.57;;;;;;;;;;5054267;28;20685;-74
2022/09/04 14:27:58;;;;;;;1.77;1.67;;;;;;;;;;5059167;28;20185;-74
2022/09/04 14:30:24;;;;;;;1.70;1.60;;;;;;;;;;5054355;28;20225;-74
2022/09/04 14:33:09;;;;;;;1.50;1.40;;;;;;;;;;5059424;28;20180;-75
2022/09/04 14:35:45;;;;;;;1.40;1.30;;;;;;;;;;5060658;28;20207;-74
2022/09/04 14:38:36;;;;;;;1.50;1.40;;;;;;;;;;5054919;28;20759;-74
2022/09/04 14:41:09;;;;;;;1.63;1.50;;;;;;;;;;5056365;28;20201;-74
2022/09/04 14:44:00;;;;;;;1.50;1.40;;;;;;;;;;5051786;28;20295;-74
2022/09/04 14:46:38;;;;;;;2.20;1.47;;;;;;;;;;5040880;28;20199;-74
2022/09/04 14:49:07;;;;;;;1.93;1.70;;;;;;;;;;5055133;28;20211;-73
2022/09/04 14:51:42;;;;;;;1.60;1.50;;;;;;;;;;5058939;28;20183;-75
2022/09/04 14:54:14;;;;;;;1.23;1.13;;;;;;;;;;5060899;28;20214;-73
2022/09/04 14:56:43;;;;;;;1.40;1.30;;;;;;;;;;5053476;28;20182;-74
2022/09/04 14:59:29;;;;;;;1.63;1.53;;;;;;;;;;5057509;28;20245;-74
2022/09/04 15:02:08;;;;;;;1.40;1.30;;;;;;;;;;5050641;28;20185;-78
2022/09/04 15:04:50;;;;;;;1.80;1.40;;;;;;;;;;5054183;28;20236;-76
2022/09/04 15:07:23;;;;;;;1.43;1.33;;;;;;;;;;5058897;28;20203;-76
2022/09/04 15:09:50;;;;;;;1.97;1.33;;;;;;;;;;5052356;28;20817;-76
2022/09/04 15:12:22;;;;;;;1.40;1.30;;;;;;;;;;5059032;28;20190;-76
2022/09/04 15:14:50;;;;;;;1.93;1.50;;;;;;;;;;5057987;28;20202;-76
2022/09/04 15:17:25;;;;;;;1.67;1.57;;;;;;;;;;5062694;28;20187;-76
2022/09/04 15:20:19;;;;;;;1.93;1.33;;;;;;;;;;5041587;28;20672;-75
2022/09/04 15:23:05;;;;;;;2.20;1.70;;;;;;;;;;5060555;28;20280;-75
2022/09/04 15:25:56;;;;;;;1.93;1.53;;;;;;;;;;5056306;28;20220;-75
2022/09/04 15:28:37;;;;;;;1.67;1.57;;;;;;;;;;5057060;28;20232;-75
2022/09/04 15:31:06;;;;;;;1.63;1.50;;;;;;;;;;5061108;28;20235;-75
2022/09/04 15:33:32;;;;;;;1.93;1.40;;;;;;;;;;5061456;28;20217;-75
2022/09/04 15:36:17;;;;;;;1.50;1.40;;;;;;;;;;5058694;28;20201;-75
2022/09/04 15:39:02;;;;;;;4.97;1.70;;;;;;;;;;5046491;28;20209;-75
2022/09/04 15:41:31;;;;;;;2.90;2.30;;;;;;;;;;5055975;28;20182;-76
2022/09/04 15:44:01;;;;;;;3.50;2.30;;;;;;;;;;5060320;28;20211;-75
2022/09/04 15:46:53;;;;;;;2.30;2.10;;;;;;;;;;5059848;28;20185;-83